createdAt,value
2022-10-10T00:00:39.520Z,9.32
2022-10-10T00:01:39.509Z,9.24
2022-10-10T00:02:39.470Z,9.35
2022-10-10T00:03:39.447Z,9.38
2022-10-10T00:04:39.418Z,9.29
2022-10-10T00:05:39.398Z,9.29
2022-10-10T00:06:39.390Z,9.35
2022-10-10T00:07:39.348Z,9.23
2022-10-10T00:08:39.319Z,9.26
2022-10-10T00:09:39.291Z,9.32
2022-10-10T00:10:39.270Z,9.24
2022-10-10T00:11:39.256Z,9.26
2022-10-10T00:12:39.217Z,9.21
2022-10-10T00:13:39.198Z,9.26
2022-10-10T00:14:39.171Z,9.14
2022-10-10T00:15:39.146Z,9.24
2022-10-10T00:16:39.125Z,9.31
2022-10-10T00:17:39.097Z,9.20
2022-10-10T00:18:39.077Z,9.18
2022-10-10T00:19:39.049Z,9.18
2022-10-10T00:20:39.025Z,9.18
2022-10-10T00:21:38.998Z,9.17
2022-10-10T00:22:38.993Z,9.08
2022-10-10T00:23:38.954Z,9.20
2022-10-10T00:24:38.924Z,9.10
2022-10-10T00:25:38.904Z,9.14
2022-10-10T00:26:38.873Z,9.15
2022-10-10T00:27:38.853Z,9.11
2022-10-10T00:28:39.260Z,9.11
2022-10-10T00:29:38.801Z,9.13
2022-10-10T00:30:38.776Z,9.08
2022-10-10T00:31:38.754Z,9.10
2022-10-10T00:32:38.725Z,9.10
2022-10-10T00:33:38.705Z,9.05
2022-10-10T00:34:38.680Z,9.08
2022-10-10T00:35:38.656Z,9.05
2022-10-10T00:36:38.630Z,9.05
2022-10-10T00:37:38.677Z,9.02
2022-10-10T00:38:38.610Z,8.99
2022-10-10T00:39:38.562Z,9.05
2022-10-10T00:40:38.532Z,8.98
2022-10-10T00:41:38.506Z,8.91
2022-10-10T00:42:38.483Z,8.95
2022-10-10T00:43:38.454Z,8.87
2022-10-10T00:44:38.432Z,8.86
2022-10-10T00:45:38.410Z,8.80
2022-10-10T00:46:38.381Z,8.77
2022-10-10T00:47:38.359Z,8.84
2022-10-10T00:48:38.327Z,8.74
2022-10-10T00:49:38.304Z,8.70
2022-10-10T00:50:38.286Z,8.68
2022-10-10T00:51:38.257Z,8.66
2022-10-10T00:52:38.234Z,8.59
2022-10-10T00:53:38.206Z,8.55
2022-10-10T00:54:38.198Z,8.61
2022-10-10T00:55:38.155Z,8.58
2022-10-10T00:56:38.133Z,8.41
2022-10-10T00:57:38.108Z,8.43
2022-10-10T00:58:38.084Z,8.44
2022-10-10T00:59:38.059Z,8.38
2022-10-10T01:00:38.085Z,8.30
2022-10-10T01:01:38.007Z,8.36
2022-10-10T01:02:37.983Z,8.26
2022-10-10T01:03:37.959Z,8.36
2022-10-10T01:04:39.553Z,8.37
2022-10-10T01:05:37.908Z,8.37
2022-10-10T01:06:37.879Z,8.36
2022-10-10T01:07:37.859Z,8.38
2022-10-10T01:08:37.835Z,8.40
2022-10-10T01:09:37.809Z,8.37
2022-10-10T01:10:37.802Z,8.41
2022-10-10T01:11:37.765Z,8.41
2022-10-10T01:12:37.734Z,8.38
2022-10-10T01:13:37.706Z,8.38
2022-10-10T01:14:37.686Z,8.34
2022-10-10T01:15:37.666Z,8.36
2022-10-10T01:16:37.637Z,8.37
2022-10-10T01:17:37.614Z,8.34
2022-10-10T01:18:37.582Z,8.26
2022-10-10T01:19:37.557Z,8.23
2022-10-10T01:20:37.538Z,8.18
2022-10-10T01:21:37.509Z,8.25
2022-10-10T01:22:37.486Z,8.19
2022-10-10T01:23:37.466Z,8.07
2022-10-10T01:24:37.438Z,8.18
2022-10-10T01:25:37.408Z,8.02
2022-10-10T01:26:37.407Z,7.98
2022-10-10T01:27:37.365Z,7.92
2022-10-10T01:28:37.388Z,7.89
2022-10-10T01:29:37.309Z,7.87
2022-10-10T01:30:37.284Z,7.83
2022-10-10T01:31:37.263Z,7.90
2022-10-10T01:32:37.236Z,7.93
2022-10-10T01:33:37.215Z,7.89
2022-10-10T01:34:37.184Z,7.95
2022-10-10T01:35:37.164Z,7.95
2022-10-10T01:36:37.139Z,7.92
2022-10-10T01:37:37.109Z,8.00
2022-10-10T01:38:37.089Z,7.92
2022-10-10T01:39:37.065Z,7.95
2022-10-10T01:40:37.036Z,7.92
2022-10-10T01:41:37.007Z,7.85
2022-10-10T01:42:37.008Z,7.86
2022-10-10T01:43:36.961Z,7.89
2022-10-10T01:44:36.931Z,7.86
2022-10-10T01:45:36.904Z,7.90
2022-10-10T01:46:36.885Z,7.85
2022-10-10T01:47:36.855Z,7.97
2022-10-10T01:48:36.834Z,7.92
2022-10-10T01:49:36.810Z,7.92
2022-10-10T01:50:36.778Z,7.85
2022-10-10T01:51:36.754Z,7.79
2022-10-10T01:52:36.730Z,7.79
2022-10-10T01:53:36.703Z,7.77
2022-10-10T01:54:36.677Z,7.71
2022-10-10T01:55:36.654Z,7.74
2022-10-10T01:56:36.630Z,7.75
2022-10-10T01:57:36.603Z,7.71
2022-10-10T01:58:36.600Z,7.79
2022-10-10T01:59:36.555Z,7.75
2022-10-10T02:00:36.606Z,7.71
2022-10-10T02:01:36.502Z,7.72
2022-10-10T02:02:36.475Z,7.69
2022-10-10T02:03:36.453Z,7.79
2022-10-10T02:04:36.425Z,7.80
2022-10-10T02:05:36.405Z,7.83
2022-10-10T02:06:36.381Z,7.80
2022-10-10T02:07:36.351Z,7.79
2022-10-10T02:08:36.323Z,7.79
2022-10-10T02:09:36.299Z,7.79
2022-10-10T02:10:36.278Z,7.82
2022-10-10T02:11:36.260Z,7.74
2022-10-10T02:12:36.224Z,7.75
2022-10-10T02:13:36.206Z,7.82
2022-10-10T02:14:36.213Z,7.75
2022-10-10T02:15:36.148Z,7.79
2022-10-10T02:16:36.131Z,7.82
2022-10-10T02:17:36.102Z,7.71
2022-10-10T02:18:36.077Z,7.72
2022-10-10T02:19:36.048Z,7.74
2022-10-10T02:20:36.028Z,7.63
2022-10-10T02:21:35.996Z,7.69
2022-10-10T02:22:35.973Z,7.71
2022-10-10T02:23:35.947Z,7.68
2022-10-10T02:24:35.929Z,7.71
2022-10-10T02:25:35.898Z,7.63
2022-10-10T02:26:35.874Z,7.67
2022-10-10T02:27:35.843Z,7.68
2022-10-10T02:28:35.866Z,7.79
2022-10-10T02:29:35.793Z,7.67
2022-10-10T02:30:35.789Z,7.68
2022-10-10T02:31:35.744Z,7.68
2022-10-10T02:32:35.722Z,7.71
2022-10-10T02:33:35.691Z,7.67
2022-10-10T02:34:35.669Z,7.74
2022-10-10T02:35:35.645Z,7.75
2022-10-10T02:36:35.617Z,7.77
2022-10-10T02:37:35.589Z,7.69
2022-10-10T02:38:35.566Z,7.77
2022-10-10T02:39:35.541Z,7.74
2022-10-10T02:40:35.518Z,7.77
2022-10-10T02:41:35.491Z,7.79
2022-10-10T02:42:35.465Z,7.74
2022-10-10T02:43:35.442Z,7.68
2022-10-10T02:44:35.419Z,7.61
2022-10-10T02:45:35.392Z,7.74
2022-10-10T02:46:35.387Z,7.68
2022-10-10T02:47:35.342Z,7.58
2022-10-10T02:48:35.314Z,7.69
2022-10-10T02:49:35.293Z,7.61
2022-10-10T02:50:35.270Z,7.61
2022-10-10T02:51:35.236Z,7.67
2022-10-10T02:52:35.215Z,7.68
2022-10-10T02:53:35.193Z,7.52
2022-10-10T02:54:35.163Z,7.48
2022-10-10T02:55:35.135Z,7.49
2022-10-10T02:56:35.111Z,7.58
2022-10-10T02:57:35.083Z,7.60
2022-10-10T02:58:35.066Z,7.52
2022-10-10T02:59:35.040Z,7.53
2022-10-10T03:00:35.011Z,7.57
2022-10-10T03:01:34.984Z,7.50
2022-10-10T03:02:34.987Z,7.50
2022-10-10T03:03:34.934Z,7.55
2022-10-10T03:04:34.914Z,7.61
2022-10-10T03:05:34.885Z,7.67
2022-10-10T03:06:34.862Z,7.61
2022-10-10T03:07:34.830Z,7.46
2022-10-10T03:08:34.810Z,7.55
2022-10-10T03:09:34.783Z,7.60
2022-10-10T03:10:34.762Z,7.45
2022-10-10T03:11:34.730Z,7.46
2022-10-10T03:12:34.706Z,7.46
2022-10-10T03:13:34.679Z,7.58
2022-10-10T03:14:34.662Z,7.57
2022-10-10T03:15:34.631Z,7.63
2022-10-10T03:16:34.604Z,7.50
2022-10-10T03:17:34.576Z,7.55
2022-10-10T03:18:34.571Z,7.52
2022-10-10T03:19:34.531Z,7.61
2022-10-10T03:20:34.500Z,7.55
2022-10-10T03:21:34.476Z,7.50
2022-10-10T03:22:34.450Z,7.63
2022-10-10T03:23:34.428Z,7.61
2022-10-10T03:24:34.398Z,7.61
2022-10-10T03:25:34.387Z,7.63
2022-10-10T03:26:34.351Z,7.68
2022-10-10T03:27:34.321Z,7.64
2022-10-10T03:28:34.343Z,7.58
2022-10-10T03:29:34.276Z,7.67
2022-10-10T03:30:34.247Z,7.68
2022-10-10T03:31:34.221Z,7.68
2022-10-10T03:32:34.196Z,7.72
2022-10-10T03:33:34.176Z,7.58
2022-10-10T03:34:34.174Z,7.63
2022-10-10T03:35:34.121Z,7.58
2022-10-10T03:36:34.094Z,7.61
2022-10-10T03:37:34.069Z,7.63
2022-10-10T03:38:34.051Z,7.68
2022-10-10T03:39:34.017Z,7.67
2022-10-10T03:40:33.998Z,7.61
2022-10-10T03:41:33.969Z,7.67
2022-10-10T03:42:33.953Z,7.71
2022-10-10T03:43:33.917Z,7.69
2022-10-10T03:44:33.893Z,7.67
2022-10-10T03:45:33.864Z,7.61
2022-10-10T03:46:33.848Z,7.48
2022-10-10T03:47:33.813Z,7.60
2022-10-10T03:48:33.793Z,7.58
2022-10-10T03:49:33.767Z,7.63
2022-10-10T03:50:33.762Z,7.68
2022-10-10T03:51:33.715Z,7.52
2022-10-10T03:52:33.688Z,7.53
2022-10-10T03:53:33.659Z,7.48
2022-10-10T03:54:33.640Z,7.43
2022-10-10T03:55:33.616Z,7.46
2022-10-10T03:56:33.590Z,7.40
2022-10-10T03:57:33.561Z,7.43
2022-10-10T03:58:33.540Z,7.35
2022-10-10T03:59:33.511Z,7.34
2022-10-10T04:00:33.497Z,7.34
2022-10-10T04:01:33.535Z,7.35
2022-10-10T04:02:33.440Z,7.35
2022-10-10T04:03:33.405Z,7.40
2022-10-10T04:04:33.387Z,7.37
2022-10-10T04:05:33.356Z,7.32
2022-10-10T04:06:33.351Z,7.28
2022-10-10T04:07:33.307Z,7.16
2022-10-10T04:08:33.284Z,7.25
2022-10-10T04:09:33.256Z,7.23
2022-10-10T04:10:33.243Z,7.28
2022-10-10T04:11:33.202Z,7.24
2022-10-10T04:12:33.186Z,7.23
2022-10-10T04:13:33.150Z,7.15
2022-10-10T04:14:33.128Z,7.28
2022-10-10T04:15:33.102Z,7.17
2022-10-10T04:16:33.077Z,7.23
2022-10-10T04:17:33.057Z,7.23
2022-10-10T04:18:33.029Z,7.21
2022-10-10T04:19:33.000Z,7.23
2022-10-10T04:20:32.993Z,7.25
2022-10-10T04:21:32.950Z,7.24
2022-10-10T04:22:32.969Z,7.21
2022-10-10T04:23:32.898Z,7.30
2022-10-10T04:24:32.874Z,7.27
2022-10-10T04:25:32.847Z,7.25
2022-10-10T04:26:32.822Z,7.21
2022-10-10T04:27:32.798Z,7.23
2022-10-10T04:28:32.884Z,7.27
2022-10-10T04:29:32.743Z,7.24
2022-10-10T04:30:32.721Z,7.24
2022-10-10T04:31:32.697Z,7.30
2022-10-10T04:32:32.673Z,7.21
2022-10-10T04:33:32.645Z,7.21
2022-10-10T04:34:32.622Z,7.17
2022-10-10T04:35:32.592Z,7.16
2022-10-10T04:36:32.568Z,7.13
2022-10-10T04:37:32.541Z,7.17
2022-10-10T04:38:32.536Z,7.21
2022-10-10T04:39:32.494Z,7.24
2022-10-10T04:40:32.468Z,7.21
2022-10-10T04:41:32.443Z,7.20
2022-10-10T04:42:32.416Z,7.23
2022-10-10T04:43:32.398Z,7.23
2022-10-10T04:44:32.366Z,7.30
2022-10-10T04:45:37.232Z,7.24
2022-10-10T04:46:32.316Z,7.28
2022-10-10T04:47:32.287Z,7.24
2022-10-10T04:48:32.273Z,7.35
2022-10-10T04:49:32.238Z,7.28
2022-10-10T04:50:32.217Z,7.39
2022-10-10T04:51:32.188Z,7.37
2022-10-10T04:52:32.160Z,7.34
2022-10-10T04:53:32.131Z,7.42
2022-10-10T04:54:32.129Z,7.34
2022-10-10T04:55:32.083Z,7.34
2022-10-10T04:56:32.061Z,7.30
2022-10-10T04:57:32.029Z,7.30
2022-10-10T04:58:32.008Z,7.27
2022-10-10T04:59:31.979Z,7.34
2022-10-10T05:00:31.955Z,7.39
2022-10-10T05:01:32.000Z,7.30
2022-10-10T05:02:31.905Z,7.31
2022-10-10T05:03:31.878Z,7.30
2022-10-10T05:04:31.860Z,7.32
2022-10-10T05:05:31.831Z,7.30
2022-10-10T05:06:31.804Z,7.32
2022-10-10T05:07:31.778Z,7.25
2022-10-10T05:08:31.755Z,7.35
2022-10-10T05:09:31.725Z,7.35
2022-10-10T05:10:31.770Z,7.34
2022-10-10T05:11:31.677Z,7.32
2022-10-10T05:12:31.654Z,7.37
2022-10-10T05:13:31.629Z,7.35
2022-10-10T05:14:31.609Z,7.35
2022-10-10T05:15:31.581Z,7.35
2022-10-10T05:16:31.555Z,7.34
2022-10-10T05:17:31.528Z,7.31
2022-10-10T05:18:31.501Z,7.42
2022-10-10T05:19:31.476Z,7.39
2022-10-10T05:20:31.451Z,7.40
2022-10-10T05:21:31.418Z,7.34
2022-10-10T05:22:31.403Z,7.37
2022-10-10T05:23:31.368Z,7.35
2022-10-10T05:24:31.345Z,7.40
2022-10-10T05:25:31.321Z,7.40
2022-10-10T05:26:31.316Z,7.35
2022-10-10T05:27:31.268Z,7.37
2022-10-10T05:28:31.317Z,7.42
2022-10-10T05:29:31.220Z,7.42
2022-10-10T05:30:31.191Z,7.42
2022-10-10T05:31:31.167Z,7.35
2022-10-10T05:32:31.144Z,7.45
2022-10-10T05:33:31.112Z,7.45
2022-10-10T05:34:31.098Z,7.46
2022-10-10T05:35:31.063Z,7.55
2022-10-10T05:36:31.042Z,7.42
2022-10-10T05:37:31.019Z,7.48
2022-10-10T05:38:30.988Z,7.43
2022-10-10T05:39:30.965Z,7.42
2022-10-10T05:40:30.941Z,7.46
2022-10-10T05:41:30.909Z,7.43
2022-10-10T05:42:30.915Z,7.45
2022-10-10T05:43:30.862Z,7.42
2022-10-10T05:44:30.836Z,7.40
2022-10-10T05:45:30.803Z,7.40
2022-10-10T05:46:30.785Z,7.42
2022-10-10T05:47:30.760Z,7.40
2022-10-10T05:48:30.729Z,7.42
2022-10-10T05:49:30.704Z,7.40
2022-10-10T05:50:30.679Z,7.43
2022-10-10T05:51:30.651Z,7.42
2022-10-10T05:52:30.628Z,7.43
2022-10-10T05:53:30.598Z,7.43
2022-10-10T05:54:30.581Z,7.43
2022-10-10T05:55:30.553Z,7.40
2022-10-10T05:56:30.528Z,7.40
2022-10-10T05:57:30.516Z,7.46
2022-10-10T05:58:30.499Z,7.49
2022-10-10T05:59:30.452Z,7.40
2022-10-10T06:00:30.424Z,7.42
2022-10-10T06:01:30.407Z,7.40
2022-10-10T06:02:30.437Z,7.43
2022-10-10T06:03:30.350Z,7.34
2022-10-10T06:04:30.337Z,7.40
2022-10-10T06:05:30.300Z,7.34
2022-10-10T06:06:30.274Z,7.31
2022-10-10T06:07:51.804Z,7.28
2022-10-10T06:08:30.219Z,7.24
2022-10-10T06:09:30.190Z,7.28
2022-10-10T06:10:30.171Z,7.20
2022-10-10T06:11:30.143Z,7.25
2022-10-10T06:12:30.123Z,7.25
2022-10-10T06:13:30.095Z,7.25
2022-10-10T06:14:30.088Z,7.23
2022-10-10T06:15:30.046Z,7.20
2022-10-10T06:16:30.022Z,7.16
2022-10-10T06:17:29.992Z,7.13
2022-10-10T06:18:29.973Z,7.13
2022-10-10T06:19:29.941Z,7.15
2022-10-10T06:20:29.920Z,7.15
2022-10-10T06:21:29.888Z,7.16
2022-10-10T06:22:29.862Z,7.17
2022-10-10T06:23:29.838Z,7.20
2022-10-10T06:24:29.813Z,7.13
2022-10-10T06:25:40.130Z,7.15
2022-10-10T06:26:29.758Z,7.20
2022-10-10T06:27:29.730Z,7.24
2022-10-10T06:28:29.754Z,7.27
2022-10-10T06:29:29.684Z,7.20
2022-10-10T06:30:29.740Z,7.30
2022-10-10T06:31:29.637Z,7.25
2022-10-10T06:32:29.609Z,7.35
2022-10-10T06:33:29.586Z,7.37
2022-10-10T06:34:29.556Z,7.42
2022-10-10T06:35:29.532Z,7.50
2022-10-10T06:36:29.504Z,7.45
2022-10-10T06:37:29.482Z,7.49
2022-10-10T06:38:29.455Z,7.49
2022-10-10T06:39:29.435Z,7.55
2022-10-10T06:40:29.412Z,7.49
2022-10-10T06:41:29.386Z,7.63
2022-10-10T06:43:11.914Z,7.64
2022-10-10T06:44:11.854Z,7.71
2022-10-10T06:45:11.824Z,7.63
2022-10-10T06:46:11.843Z,7.64
2022-10-10T06:47:11.779Z,7.69
2022-10-10T06:48:11.748Z,7.64
2022-10-10T06:49:11.723Z,7.69
2022-10-10T06:50:11.697Z,7.79
2022-10-10T06:51:11.673Z,7.85
2022-10-10T06:52:11.651Z,7.86
2022-10-10T06:53:11.624Z,7.89
2022-10-10T06:54:11.600Z,7.83
2022-10-10T06:55:11.569Z,7.90
2022-10-10T06:56:11.543Z,8.00
2022-10-10T06:57:11.519Z,7.92
2022-10-10T06:58:11.496Z,7.95
2022-10-10T06:59:11.469Z,8.07
2022-10-10T07:00:11.443Z,8.02
2022-10-10T07:01:11.503Z,8.10
2022-10-10T07:02:11.447Z,8.15
2022-10-10T07:03:12.789Z,8.20
2022-10-10T07:04:11.335Z,8.23
2022-10-10T07:05:11.315Z,8.25
2022-10-10T07:06:11.293Z,8.23
2022-10-10T07:07:11.266Z,8.29
2022-10-10T07:08:11.245Z,8.41
2022-10-10T07:09:11.230Z,8.43
2022-10-10T07:10:11.196Z,8.48
2022-10-10T07:11:11.174Z,8.55
2022-10-10T07:12:11.137Z,8.63
2022-10-10T07:13:11.117Z,8.58
2022-10-10T07:14:11.089Z,8.63
2022-10-10T07:15:11.064Z,8.62
2022-10-10T07:16:11.041Z,8.74
2022-10-10T07:17:11.014Z,8.80
2022-10-10T07:18:11.017Z,8.81
2022-10-10T07:19:10.960Z,8.89
2022-10-10T07:20:10.943Z,8.94
2022-10-10T07:21:10.915Z,8.98
2022-10-10T07:22:10.890Z,9.02
2022-10-10T07:23:10.858Z,9.14
2022-10-10T07:24:10.830Z,9.11
2022-10-10T07:25:10.809Z,9.15
2022-10-10T07:26:10.792Z,9.26
2022-10-10T07:27:10.759Z,9.32
2022-10-10T07:28:10.814Z,9.33
2022-10-10T07:29:10.700Z,9.32
2022-10-10T07:30:10.688Z,9.38
2022-10-10T07:31:10.658Z,9.40
2022-10-10T07:32:10.629Z,9.40
2022-10-10T07:33:10.627Z,9.46
2022-10-10T07:34:10.601Z,9.48
2022-10-10T07:35:10.563Z,9.58
2022-10-10T07:36:10.531Z,9.60
2022-10-10T07:37:10.511Z,9.65
2022-10-10T07:38:10.484Z,9.75
2022-10-10T07:39:13.860Z,9.69
2022-10-10T07:40:10.440Z,9.76
2022-10-10T07:41:10.417Z,9.91
2022-10-10T07:42:10.388Z,9.84
2022-10-10T07:43:10.364Z,9.84
2022-10-10T07:44:10.334Z,9.87
2022-10-10T07:45:10.334Z,9.99
2022-10-10T07:46:12.207Z,9.97
2022-10-10T07:47:10.263Z,10.14
2022-10-10T07:48:10.236Z,10.08
2022-10-10T07:49:10.215Z,10.11
2022-10-10T07:50:10.206Z,10.17
2022-10-10T07:51:10.161Z,10.23
2022-10-10T07:52:10.136Z,10.30
2022-10-10T07:53:10.116Z,10.32
2022-10-10T07:54:10.091Z,10.36
2022-10-10T07:55:10.065Z,10.42
2022-10-10T07:56:10.051Z,10.44
2022-10-10T07:57:10.020Z,10.36
2022-10-10T07:58:09.990Z,10.33
2022-10-10T07:59:09.969Z,10.41
2022-10-10T08:00:09.939Z,10.44
2022-10-10T08:01:09.919Z,10.53
2022-10-10T08:02:09.960Z,10.47
2022-10-10T08:03:12.223Z,10.53
2022-10-10T08:04:09.845Z,10.66
2022-10-10T08:05:09.825Z,10.66
2022-10-10T08:06:09.806Z,10.73
2022-10-10T08:07:09.767Z,10.76
2022-10-10T08:08:09.748Z,10.88
2022-10-10T08:09:09.717Z,10.94
2022-10-10T08:10:09.697Z,11.02
2022-10-10T08:11:09.671Z,11.00
2022-10-10T08:12:09.648Z,11.11
2022-10-10T08:13:09.622Z,11.27
2022-10-10T08:14:09.606Z,11.21
2022-10-10T08:15:09.572Z,11.25
2022-10-10T08:16:09.546Z,11.36
2022-10-10T08:17:09.524Z,11.36
2022-10-10T08:18:09.494Z,11.42
2022-10-10T08:19:09.539Z,11.43
2022-10-10T08:20:09.447Z,11.44
2022-10-10T08:21:09.424Z,11.43
2022-10-10T08:22:09.498Z,11.44
2022-10-10T08:23:09.374Z,11.42
2022-10-10T08:24:09.352Z,11.43
2022-10-10T08:25:09.331Z,11.46
2022-10-10T08:26:09.304Z,11.54
2022-10-10T08:27:09.283Z,11.73
2022-10-10T08:28:09.290Z,11.75
2022-10-10T08:29:09.231Z,11.88
2022-10-10T08:30:09.205Z,11.96
2022-10-10T08:31:09.182Z,11.91
2022-10-10T08:32:09.169Z,12.09
2022-10-10T08:33:09.131Z,12.14
2022-10-10T08:34:09.108Z,12.17
2022-10-10T08:35:09.081Z,12.28
2022-10-10T08:36:09.061Z,12.17
2022-10-10T08:37:09.035Z,12.29
2022-10-10T08:38:09.083Z,12.28
2022-10-10T08:39:08.986Z,12.37
2022-10-10T08:40:08.965Z,12.35
2022-10-10T08:41:08.940Z,12.35
2022-10-10T08:42:08.914Z,12.39
2022-10-10T08:43:08.922Z,12.39
2022-10-10T08:44:08.865Z,12.54
2022-10-10T08:45:08.846Z,12.53
2022-10-10T08:46:08.815Z,12.53
2022-10-10T08:47:08.805Z,12.52
2022-10-10T08:48:08.770Z,12.52
2022-10-10T08:49:13.708Z,12.52
2022-10-10T08:50:08.727Z,12.49
2022-10-10T08:51:08.703Z,12.54
2022-10-10T08:52:08.676Z,12.65
2022-10-10T08:53:08.648Z,12.74
2022-10-10T08:54:08.724Z,12.67
2022-10-10T08:55:08.618Z,12.72
2022-10-10T08:56:08.580Z,12.78
2022-10-10T08:57:08.554Z,12.85
2022-10-10T08:58:08.526Z,12.85
2022-10-10T08:59:08.504Z,12.96
2022-10-10T09:00:08.483Z,13.04
2022-10-10T09:01:08.486Z,13.00
2022-10-10T09:02:17.590Z,13.07
2022-10-10T09:03:08.408Z,13.17
2022-10-10T09:04:08.388Z,13.19
2022-10-10T09:05:08.368Z,13.33
2022-10-10T09:06:08.349Z,13.39
2022-10-10T09:07:08.323Z,13.42
2022-10-10T09:08:08.295Z,13.48
2022-10-10T09:09:08.276Z,13.44
2022-10-10T09:10:08.273Z,13.59
2022-10-10T09:11:08.225Z,13.59
2022-10-10T09:12:08.196Z,13.64
2022-10-10T09:13:08.182Z,13.64
2022-10-10T09:14:08.150Z,13.81
2022-10-10T09:15:08.126Z,13.70
2022-10-10T09:16:08.104Z,13.85
2022-10-10T09:17:08.083Z,13.84
2022-10-10T09:18:08.056Z,13.81
2022-10-10T09:19:08.034Z,13.88
2022-10-10T09:20:08.008Z,13.81
2022-10-10T09:21:07.987Z,13.92
2022-10-10T09:22:07.960Z,13.97
2022-10-10T09:23:07.945Z,13.97
2022-10-10T09:24:07.915Z,14.09
2022-10-10T09:25:07.892Z,14.15
2022-10-10T09:26:11.286Z,14.22
2022-10-10T09:27:07.848Z,14.35
2022-10-10T09:28:07.901Z,14.35
2022-10-10T09:29:07.804Z,14.32
2022-10-10T09:30:07.776Z,14.42
2022-10-10T09:31:07.755Z,14.46
2022-10-10T09:32:07.726Z,14.55
2022-10-10T09:33:07.705Z,14.58
2022-10-10T09:34:07.680Z,14.64
2022-10-10T09:35:07.659Z,14.68
2022-10-10T09:36:07.642Z,14.68
2022-10-10T09:37:07.615Z,14.72
2022-10-10T09:38:07.589Z,14.72
2022-10-10T09:39:07.573Z,14.81
2022-10-10T09:40:07.548Z,14.73
2022-10-10T09:41:07.517Z,14.86
2022-10-10T09:42:07.522Z,14.88
2022-10-10T09:43:10.694Z,15.01
2022-10-10T09:44:07.458Z,14.99
2022-10-10T09:45:07.430Z,15.02
2022-10-10T09:46:07.411Z,15.14
2022-10-10T09:47:07.378Z,15.14
2022-10-10T09:48:07.357Z,15.13
2022-10-10T09:49:07.335Z,15.27
2022-10-10T09:50:07.317Z,15.27
2022-10-10T09:51:07.297Z,15.39
2022-10-10T09:52:07.263Z,15.39
2022-10-10T09:53:07.262Z,15.41
2022-10-10T09:54:07.219Z,15.44
2022-10-10T09:55:07.200Z,15.44
2022-10-10T09:56:07.172Z,15.51
2022-10-10T09:57:07.158Z,15.49
2022-10-10T09:58:07.147Z,15.53
2022-10-10T09:59:07.104Z,15.51
2022-10-10T10:00:07.089Z,15.59
2022-10-10T10:01:07.113Z,15.62
2022-10-10T10:02:07.041Z,15.62
2022-10-10T10:03:07.021Z,15.71
2022-10-10T10:04:23.474Z,15.72
2022-10-10T10:05:06.969Z,15.64
2022-10-10T10:06:06.943Z,15.72
2022-10-10T10:07:06.929Z,15.68
2022-10-10T10:08:06.898Z,15.72
2022-10-10T10:09:06.879Z,15.67
2022-10-10T10:10:06.859Z,15.71
2022-10-10T10:11:06.832Z,15.78
2022-10-10T10:12:06.809Z,15.80
2022-10-10T10:13:06.792Z,15.92
2022-10-10T10:14:06.783Z,15.92
2022-10-10T10:15:06.744Z,16.07
2022-10-10T10:16:06.726Z,16.02
2022-10-10T10:17:06.702Z,16.15
2022-10-10T10:18:06.671Z,16.07
2022-10-10T10:19:06.653Z,16.23
2022-10-10T10:20:10.704Z,16.28
2022-10-10T10:21:06.614Z,16.17
2022-10-10T10:22:06.588Z,16.27
2022-10-10T10:23:06.565Z,16.23
2022-10-10T10:24:06.544Z,16.31
2022-10-10T10:25:06.526Z,16.35
2022-10-10T10:26:06.555Z,16.31
2022-10-10T10:27:06.476Z,16.38
2022-10-10T10:28:06.450Z,16.28
2022-10-10T10:29:06.430Z,16.41
2022-10-10T10:30:06.429Z,16.49
2022-10-10T10:31:06.389Z,16.50
2022-10-10T10:32:06.367Z,16.56
2022-10-10T10:33:06.340Z,16.56
2022-10-10T10:34:06.319Z,16.64
2022-10-10T10:35:06.297Z,16.61
2022-10-10T10:36:06.275Z,16.71
2022-10-10T10:37:06.254Z,16.61
2022-10-10T10:38:06.231Z,16.60
2022-10-10T10:39:06.222Z,16.61
2022-10-10T10:40:06.191Z,16.66
2022-10-10T10:41:06.163Z,16.76
2022-10-10T10:42:06.140Z,16.70
2022-10-10T10:43:06.123Z,16.76
2022-10-10T10:44:06.094Z,16.81
2022-10-10T10:45:06.077Z,16.79
2022-10-10T10:46:06.083Z,16.73
2022-10-10T10:47:06.042Z,16.82
2022-10-10T10:48:06.009Z,16.85
2022-10-10T10:49:05.998Z,16.81
2022-10-10T10:50:05.966Z,16.89
2022-10-10T10:51:05.944Z,16.89
2022-10-10T10:52:05.919Z,17.00
2022-10-10T10:53:05.903Z,16.96
2022-10-10T10:54:05.877Z,17.03
2022-10-10T10:55:05.862Z,17.04
2022-10-10T10:56:05.844Z,17.01
2022-10-10T10:57:07.186Z,17.01
2022-10-10T10:58:37.628Z,17.00
2022-10-10T10:59:31.504Z,16.97
2022-10-10T11:00:21.098Z,17.01
2022-10-10T11:01:28.183Z,16.94
2022-10-10T11:02:06.298Z,16.97
2022-10-10T11:03:21.115Z,17.07
2022-10-10T11:05:18.503Z,17.04
2022-10-10T11:05:19.453Z,16.98
2022-10-10T11:06:05.751Z,17.08
2022-10-10T11:07:18.470Z,17.19
2022-10-10T11:08:05.572Z,17.15
2022-10-10T11:09:05.547Z,17.30
2022-10-10T11:10:05.522Z,17.31
2022-10-10T11:11:05.503Z,17.31
2022-10-10T11:12:05.491Z,17.41
2022-10-10T11:13:05.458Z,17.64
2022-10-10T11:14:05.433Z,17.70
2022-10-10T11:15:05.416Z,17.78
2022-10-10T11:16:07.490Z,17.82
2022-10-10T11:17:05.376Z,17.87
2022-10-10T11:18:05.365Z,18.03
2022-10-10T11:19:05.328Z,17.96
2022-10-10T11:20:05.313Z,17.86
2022-10-10T11:21:05.289Z,17.78
2022-10-10T11:22:05.263Z,17.70
2022-10-10T11:23:08.847Z,17.71
2022-10-10T11:24:05.216Z,17.71
2022-10-10T11:25:05.201Z,17.71
2022-10-10T11:26:05.173Z,17.72
2022-10-10T11:27:05.155Z,17.77
2022-10-10T11:28:05.142Z,17.75
2022-10-10T11:29:05.209Z,17.74
2022-10-10T11:30:05.082Z,17.74
2022-10-10T11:31:05.066Z,17.75
2022-10-10T11:32:05.124Z,17.79
2022-10-10T11:33:05.032Z,17.87
2022-10-10T11:34:05.032Z,17.77
2022-10-10T11:35:04.976Z,17.92
2022-10-10T11:36:04.961Z,17.82
2022-10-10T11:37:04.936Z,17.90
2022-10-10T11:38:04.913Z,17.86
2022-10-10T11:39:04.892Z,17.86
2022-10-10T11:40:04.875Z,17.93
2022-10-10T11:41:04.855Z,18.00
2022-10-10T11:42:04.828Z,17.90
2022-10-10T11:43:04.809Z,17.92
2022-10-10T11:44:04.787Z,17.97
2022-10-10T11:45:04.759Z,17.96
2022-10-10T11:46:04.998Z,17.96
2022-10-10T11:47:04.730Z,18.00
2022-10-10T11:48:04.698Z,17.96
2022-10-10T11:49:04.675Z,17.95
2022-10-10T11:50:04.675Z,17.96
2022-10-10T11:51:04.632Z,17.96
2022-10-10T11:52:28.867Z,17.96
2022-10-10T11:53:04.588Z,17.93
2022-10-10T11:54:04.571Z,18.00
2022-10-10T11:55:04.611Z,17.96
2022-10-10T11:56:04.627Z,17.97
2022-10-10T11:57:04.509Z,17.93
2022-10-10T11:58:04.491Z,17.95
2022-10-10T11:59:04.465Z,17.93
2022-10-10T12:00:04.443Z,17.96
2022-10-10T12:01:04.419Z,17.92
2022-10-10T12:02:04.392Z,17.97
2022-10-10T12:03:04.383Z,17.92
2022-10-10T12:04:04.351Z,17.97
2022-10-10T12:05:04.337Z,17.92
2022-10-10T12:06:04.684Z,17.90
2022-10-10T12:07:04.293Z,17.99
2022-10-10T12:08:04.271Z,17.97
2022-10-10T12:09:04.248Z,17.93
2022-10-10T12:10:04.230Z,17.93
2022-10-10T12:11:04.208Z,17.93
2022-10-10T12:12:04.184Z,17.97
2022-10-10T12:13:04.162Z,17.97
2022-10-10T12:14:04.145Z,17.96
2022-10-10T12:15:04.116Z,17.97
2022-10-10T12:16:04.468Z,17.93
2022-10-10T12:17:04.078Z,18.00
2022-10-10T12:18:04.051Z,17.93
2022-10-10T12:19:04.040Z,17.90
2022-10-10T12:20:04.013Z,17.96
2022-10-10T12:21:03.990Z,17.95
2022-10-10T12:22:03.993Z,17.92
2022-10-10T12:23:03.947Z,17.96
2022-10-10T12:24:03.926Z,17.84
2022-10-10T12:25:03.907Z,17.90
2022-10-10T12:26:04.300Z,17.82
2022-10-10T12:27:03.865Z,17.82
2022-10-10T12:28:03.841Z,17.86
2022-10-10T12:29:03.815Z,17.79
2022-10-10T12:30:03.802Z,17.78
2022-10-10T12:31:04.243Z,17.84
2022-10-10T12:32:03.753Z,17.78
2022-10-10T12:33:03.729Z,17.84
2022-10-10T12:34:03.710Z,17.74
2022-10-10T12:35:03.688Z,17.71
2022-10-10T12:36:04.011Z,17.71
2022-10-10T12:37:07.388Z,17.75
2022-10-10T12:38:03.644Z,17.77
2022-10-10T12:39:03.600Z,17.75
2022-10-10T12:40:03.577Z,17.74
2022-10-10T12:41:03.944Z,17.75
2022-10-10T12:42:03.538Z,17.77
2022-10-10T12:43:03.518Z,17.78
2022-10-10T12:44:03.495Z,17.78
2022-10-10T12:45:03.474Z,17.81
2022-10-10T12:46:03.455Z,17.78
2022-10-10T12:47:06.622Z,17.75
2022-10-10T12:48:06.258Z,17.86
2022-10-10T12:49:03.386Z,17.86
2022-10-10T12:50:03.361Z,17.92
2022-10-10T12:51:03.995Z,17.81
2022-10-10T12:52:03.323Z,17.95
2022-10-10T12:53:03.298Z,17.97
2022-10-10T12:54:03.300Z,17.97
2022-10-10T12:55:06.664Z,18.03
2022-10-10T12:56:03.245Z,18.08
2022-10-10T12:57:03.216Z,18.11
2022-10-10T12:58:03.217Z,18.10
2022-10-10T12:59:03.175Z,18.14
2022-10-10T13:00:03.148Z,18.21
2022-10-10T13:01:03.586Z,18.21
2022-10-10T13:02:03.260Z,18.18
2022-10-10T13:03:03.093Z,18.12
2022-10-10T13:04:03.065Z,18.14
2022-10-10T13:05:03.045Z,18.10
2022-10-10T13:06:03.029Z,18.07
2022-10-10T13:07:02.999Z,18.17
2022-10-10T13:08:02.981Z,18.02